Whitt, Texas
Current Conditions -  °F | °C
As of 8:53 PM on Monday 22 Dec 2014 (Local Time) from KMWL Reporting Station
Clear Clear  
Wind Chill: 50°   Ceiling: Unl
Heat Index: 50°   Visibility: 10mi
Dew Point: 41°   Wind: 0mph
Humidity: 71%   Direction: NA
Pressure: 29.67"   Gusts: NA
Location:  32.96°N, 98.02°W
Report Text: KMWL 230253Z AUTO 00000KT 10SM CLR 10/05 A2967 RMK AO2 SLP043 T01000050 50012
Loading
Personal Weather Stations






























Interactive Weather Map New forecast layout! Learn more

10-Day Weather Forecast

Advertisements
Track Severe Weather on mobile